Time;durP1;ratioP1;P1;durP2;ratioP2;P2;SDS_P1;SDS_P2;PMS_P1;PMS_P2;Temp;Humidity;BMP_temperature;BMP_pressure;BME280_temperature;BME280_humidity;BME280_pressure;Samples;Min_cycle;Max_cycle;Signal;HPM_P1;HPM_P2
2022/09/15 00:01:42;;;;;;;15.38;11.30;;;;;;;16.63;100.00;97432.69;2203113;81;21680;-80
2022/09/15 00:04:43;;;;;;;12.68;8.68;;;;;;;16.62;100.00;97435.58;2203354;81;21559;-80
2022/09/15 00:07:44;;;;;;;10.23;7.55;;;;;;;16.60;100.00;97431.08;2203413;81;21040;-80
2022/09/15 00:10:46;;;;;;;9.08;8.18;;;;;;;16.66;100.00;97428.24;2203304;81;21004;-80
2022/09/15 00:13:47;;;;;;;8.60;7.85;;;;;;;16.69;100.00;97429.08;2203322;81;20981;-80
2022/09/15 00:16:48;;;;;;;9.93;8.83;;;;;;;16.67;100.00;97419.27;2203187;80;21060;-80
2022/09/15 00:19:48;;;;;;;9.53;8.53;;;;;;;16.68;100.00;97409.00;2202954;81;21064;-80
2022/09/15 00:22:49;;;;;;;10.32;8.30;;;;;;;16.66;100.00;97407.63;2203112;80;20952;-80
2022/09/15 00:25:50;;;;;;;9.60;8.78;;;;;;;16.63;100.00;97407.58;2203318;81;20965;-80
2022/09/15 00:28:51;;;;;;;9.60;8.80;;;;;;;16.63;100.00;97404.14;2203391;81;20984;-80
2022/09/15 00:31:51;;;;;;;9.35;8.45;;;;;;;16.65;100.00;97394.94;2203316;81;20937;-80
2022/09/15 00:34:52;;;;;;;9.33;8.48;;;;;;;16.70;100.00;97397.64;2203382;81;21048;-79
2022/09/15 00:37:53;;;;;;;8.78;7.97;;;;;;;16.78;100.00;97387.94;2203176;81;20994;-79
2022/09/15 00:40:53;;;;;;;8.88;7.58;;;;;;;16.86;100.00;97389.33;2202919;81;21061;-80
2022/09/15 00:43:54;;;;;;;9.08;8.28;;;;;;;16.93;100.00;97390.45;2213514;80;21623;-81
2022/09/15 00:46:55;;;;;;;8.38;7.67;;;;;;;16.96;100.00;97386.77;2213823;80;21495;-80
2022/09/15 00:49:56;;;;;;;7.90;7.20;;;;;;;16.82;100.00;97385.58;2213860;80;21037;-80
2022/09/15 00:52:57;;;;;;;8.45;7.65;;;;;;;16.83;100.00;97391.17;2213762;80;21004;-80
2022/09/15 00:55:58;;;;;;;7.75;7.05;;;;;;;16.86;100.00;97381.93;2213841;80;20921;-80
2022/09/15 00:59:00;;;;;;;9.33;8.53;;;;;;;16.87;100.00;97382.20;2213842;80;21519;-81
2022/09/15 01:02:01;;;;;;;8.20;7.45;;;;;;;16.90;100.00;97383.01;2213953;80;21004;-81
2022/09/15 01:05:01;;;;;;;7.60;6.92;;;;;;;16.93;100.00;97375.39;2213696;80;20937;-80
2022/09/15 01:08:02;;;;;;;9.70;7.75;;;;;;;16.91;100.00;97371.37;2213856;80;21011;-80
2022/09/15 01:11:03;;;;;;;7.95;7.25;;;;;;;16.86;100.00;97372.67;2213669;80;21483;-80
2022/09/15 01:14:04;;;;;;;8.60;7.80;;;;;;;16.84;100.00;97365.53;2213777;80;21500;-80
2022/09/15 01:17:05;;;;;;;9.30;8.40;;;;;;;16.88;100.00;97362.64;2213696;80;21080;-80
2022/09/15 01:20:06;;;;;;;7.78;7.17;;;;;;;16.91;100.00;97353.67;2213668;80;21123;-81
2022/09/15 01:23:07;;;;;;;8.03;7.42;;;;;;;16.89;100.00;97347.84;2213843;80;21507;-80
2022/09/15 01:26:08;;;;;;;9.15;8.03;;;;;;;16.92;100.00;97347.89;2213715;80;21005;-80
2022/09/15 01:29:09;;;;;;;8.00;7.40;;;;;;;16.88;100.00;97345.46;2213626;80;21582;-80
2022/09/15 01:35:30;;;;;;;8.63;7.92;;;;;;;16.87;100.00;97338.05;2213762;80;21044;-81
2022/09/15 01:38:31;;;;;;;7.58;6.83;;;;;;;16.89;100.00;97343.09;2213380;80;21045;-80
2022/09/15 01:41:32;;;;;;;8.10;7.40;;;;;;;16.93;100.00;97333.09;2212460;80;21082;-80
2022/09/15 01:44:33;;;;;;;8.38;7.55;;;;;;;16.96;100.00;97337.86;2203107;81;21044;-82
2022/09/15 01:47:33;;;;;;;8.63;7.92;;;;;;;16.99;100.00;97325.44;2203043;81;21040;-81
2022/09/15 01:50:35;;;;;;;9.08;8.28;;;;;;;17.00;100.00;97334.17;2203230;81;21516;-81
2022/09/15 01:53:36;;;;;;;8.75;7.95;;;;;;;16.95;100.00;97328.34;2203735;81;21638;-80
2022/09/15 01:56:37;;;;;;;7.72;7.12;;;;;;;16.95;100.00;97323.05;2203010;81;20988;-81
2022/09/15 01:59:38;;;;;;;8.00;7.33;;;;;;;16.88;100.00;97315.06;2183295;81;21445;-81
2022/09/15 02:02:38;;;;;;;8.05;7.35;;;;;;;16.77;100.00;97320.27;2203210;81;21036;-80
2022/09/15 02:05:39;;;;;;;8.98;8.18;;;;;;;16.64;100.00;97315.89;2203256;81;20957;-80
2022/09/15 02:08:41;;;;;;;8.93;8.00;;;;;;;16.53;100.00;97318.17;2203223;80;21100;-80
2022/09/15 02:11:44;;;;;;;7.87;7.22;;;;;;;16.54;100.00;97322.41;2203087;80;21000;-81
2022/09/15 02:14:46;;;;;;;9.28;8.48;;;;;;;16.50;100.00;97316.84;2203061;81;21540;-81
2022/09/15 02:17:49;;;;;;;9.75;8.85;;;;;;;16.38;100.00;97314.37;2203140;81;20989;-81
2022/09/15 02:20:50;;;;;;;9.93;9.03;;;;;;;16.31;100.00;97310.33;2203200;81;21539;-81
2022/09/15 02:23:51;;;;;;;9.60;8.73;;;;;;;16.26;100.00;97315.02;2203120;80;21612;-80
2022/09/15 02:26:53;;;;;;;11.43;10.32;;;;;;;16.26;100.00;97323.47;2203290;80;20984;-81
2022/09/15 02:29:54;;;;;;;10.38;9.48;;;;;;;16.26;100.00;97334.04;2203302;81;20996;-80
2022/09/15 02:32:55;;;;;;;10.68;9.60;;;;;;;16.27;100.00;97332.98;2203203;80;21073;-80
2022/09/15 02:35:56;;;;;;;11.18;10.08;;;;;;;16.22;100.00;97311.30;2203143;81;21329;-80
2022/09/15 02:38:57;;;;;;;10.65;9.73;;;;;;;16.10;100.00;97298.78;2203139;81;21001;-80
2022/09/15 02:41:59;;;;;;;11.68;10.58;;;;;;;16.03;100.00;97298.17;2204152;80;21067;-80
2022/09/15 02:45:00;;;;;;;12.10;10.95;;;;;;;15.98;100.00;97291.51;2213927;80;22113;-82
2022/09/15 02:48:01;;;;;;;10.53;9.53;;;;;;;15.87;100.00;97291.92;2213595;80;21063;-81
2022/09/15 02:51:01;;;;;;;10.18;8.73;;;;;;;15.86;100.00;97295.09;2213489;80;20937;-81
2022/09/15 02:54:02;;;;;;;9.70;8.83;;;;;;;15.87;100.00;97291.41;2213303;80;20992;-80
2022/09/15 02:57:03;;;;;;;9.10;8.30;;;;;;;15.89;100.00;97293.79;2213348;80;21012;-81
2022/09/15 03:00:13;;;;;;;12.15;11.03;;;;;;;15.90;100.00;97292.22;2213351;80;21325;-80
2022/09/15 03:03:15;;;;;;;12.60;10.55;;;;;;;15.98;100.00;97284.91;2213439;80;21040;-81
2022/09/15 03:06:15;;;;;;;7.83;7.15;;;;;;;16.02;100.00;97282.06;2213444;80;20976;-80
2022/09/15 03:09:17;;;;;;;7.50;6.80;;;;;;;16.10;100.00;97281.09;2213350;80;21564;-81
2022/09/15 03:12:18;;;;;;;7.37;6.78;;;;;;;16.18;100.00;97284.61;2213287;80;21297;-81
2022/09/15 03:15:19;;;;;;;7.28;6.58;;;;;;;16.25;100.00;97278.31;2213592;80;20996;-82
2022/09/15 03:18:19;;;;;;;6.05;5.50;;;;;;;16.14;100.00;97274.26;2213772;80;20996;-81
2022/09/15 03:21:20;;;;;;;5.62;5.12;;;;;;;16.11;100.00;97276.61;2213595;80;21626;-81
2022/09/15 03:24:21;;;;;;;4.90;4.50;;;;;;;16.08;100.00;97274.45;2213660;80;21522;-80
2022/09/15 03:27:22;;;;;;;5.40;5.00;;;;;;;16.00;100.00;97278.85;2213694;80;21056;-81
2022/09/15 03:30:23;;;;;;;3.62;3.33;;;;;;;15.98;100.00;97281.74;2213583;80;20973;-80
2022/09/15 03:33:24;;;;;;;3.67;3.37;;;;;;;15.94;100.00;97272.74;2213689;80;21004;-81
2022/09/15 03:36:25;;;;;;;3.80;3.40;;;;;;;15.89;100.00;97264.23;2213667;80;21043;-81
2022/09/15 03:39:25;;;;;;;3.72;3.27;;;;;;;15.80;100.00;97262.28;2213653;80;21555;-81
2022/09/15 03:42:26;;;;;;;4.30;3.90;;;;;;;15.80;100.00;97264.40;2213622;80;21099;-81
2022/09/15 03:45:27;;;;;;;3.87;3.33;;;;;;;15.84;100.00;97276.07;2213502;80;20952;-82
2022/09/15 03:48:28;;;;;;;4.10;3.80;;;;;;;15.84;100.00;97270.80;2187263;80;20985;-80
2022/09/15 03:51:28;;;;;;;4.47;4.10;;;;;;;15.78;100.00;97274.41;2213636;80;21523;-81
2022/09/15 03:54:29;;;;;;;3.72;3.52;;;;;;;15.79;100.00;97266.77;2213692;80;21528;-81
2022/09/15 03:57:30;;;;;;;6.55;4.08;;;;;;;15.76;100.00;97263.31;2213494;80;21630;-80
2022/09/15 04:00:31;;;;;;;4.20;3.90;;;;;;;15.74;100.00;97264.61;2213591;80;21503;-81
2022/09/15 04:03:31;;;;;;;3.85;3.55;;;;;;;15.74;100.00;97271.21;2213410;80;20961;-82
2022/09/15 04:06:32;;;;;;;4.30;4.00;;;;;;;15.75;100.00;97264.36;2213829;80;21510;-81
2022/09/15 04:09:33;;;;;;;4.97;4.45;;;;;;;15.78;100.00;97280.22;2213649;80;20921;-81
2022/09/15 04:12:34;;;;;;;5.22;4.55;;;;;;;15.82;100.00;97278.69;2213584;80;21007;-80
2022/09/15 04:15:35;;;;;;;5.03;4.58;;;;;;;15.81;100.00;97284.47;2213523;80;21559;-81
2022/09/15 04:18:35;;;;;;;5.72;4.75;;;;;;;15.84;100.00;97286.63;2213560;80;20961;-81
2022/09/15 04:21:36;;;;;;;4.78;4.10;;;;;;;15.89;100.00;97291.95;2213536;80;21004;-80
2022/09/15 04:24:37;;;;;;;4.67;4.28;;;;;;;15.95;100.00;97294.66;2213551;80;20984;-81
2022/09/15 04:27:37;;;;;;;4.72;4.28;;;;;;;15.98;100.00;97289.66;2213591;80;20921;-81
2022/09/15 04:30:38;;;;;;;4.90;4.47;;;;;;;16.00;100.00;97292.88;2213347;80;21108;-81
2022/09/15 04:33:39;;;;;;;6.12;5.53;;;;;;;15.98;100.00;97298.91;2213687;80;20989;-81
2022/09/15 04:36:40;;;;;;;6.15;5.42;;;;;;;15.93;100.00;97298.34;2213798;80;20996;-80
2022/09/15 04:39:41;;;;;;;6.10;5.10;;;;;;;15.85;100.00;97292.70;2213658;80;21051;-80
2022/09/15 04:42:41;;;;;;;6.03;5.53;;;;;;;15.74;100.00;97301.03;2213600;80;21057;-81
2022/09/15 04:45:42;;;;;;;6.12;5.53;;;;;;;15.67;100.00;97300.94;2213557;80;21025;-81
2022/09/15 04:48:44;;;;;;;7.03;6.12;;;;;;;15.71;100.00;97308.63;2213385;80;21036;-80
2022/09/15 04:51:45;;;;;;;6.78;6.08;;;;;;;15.66;100.00;97294.87;2213716;80;20984;-80
2022/09/15 04:54:46;;;;;;;5.70;5.20;;;;;;;15.68;100.00;97298.05;2213539;80;21582;-80
2022/09/15 04:57:47;;;;;;;6.33;5.75;;;;;;;15.76;100.00;97301.58;2213293;80;20953;-80
2022/09/15 05:00:48;;;;;;;6.37;5.53;;;;;;;15.80;100.00;97296.06;2213320;80;21032;-81
2022/09/15 05:03:49;;;;;;;5.47;4.97;;;;;;;15.85;100.00;97299.30;2213322;80;20995;-81
2022/09/15 05:06:49;;;;;;;8.43;7.62;;;;;;;15.86;100.00;97301.69;2213348;80;20993;-81
2022/09/15 05:09:50;;;;;;;7.80;6.95;;;;;;;15.80;100.00;97296.59;2213400;80;21024;-80
2022/09/15 05:12:51;;;;;;;7.30;6.45;;;;;;;15.80;100.00;97294.75;2213424;80;21448;-81
2022/09/15 05:15:52;;;;;;;7.53;6.83;;;;;;;15.78;100.00;97302.13;2213680;80;20918;-80
2022/09/15 05:18:52;;;;;;;5.30;4.87;;;;;;;15.87;100.00;97294.56;2213615;80;21024;-81
2022/09/15 05:21:53;;;;;;;7.15;6.45;;;;;;;15.95;100.00;97288.05;2213483;80;20997;-80
2022/09/15 05:24:54;;;;;;;6.53;5.80;;;;;;;16.04;100.00;97281.28;2213588;80;21004;-80
2022/09/15 05:27:55;;;;;;;7.33;6.62;;;;;;;16.14;100.00;97283.50;2213622;80;21475;-80
2022/09/15 05:30:55;;;;;;;8.05;7.22;;;;;;;16.24;100.00;97288.60;2213874;80;20953;-80
2022/09/15 05:33:56;;;;;;;8.10;7.40;;;;;;;16.23;100.00;97282.53;2213834;80;20996;-81
2022/09/15 05:36:57;;;;;;;8.15;7.45;;;;;;;16.21;100.00;97291.23;2213813;80;20961;-81
2022/09/15 05:39:58;;;;;;;6.22;5.50;;;;;;;16.25;100.00;97288.34;2213373;80;21492;-82
2022/09/15 05:42:59;;;;;;;5.80;5.30;;;;;;;16.21;100.00;97296.51;2211623;80;21048;-81
2022/09/15 05:45:59;;;;;;;7.33;6.62;;;;;;;16.16;100.00;97297.77;2203140;80;20957;-81
2022/09/15 05:49:00;;;;;;;5.92;5.42;;;;;;;16.15;100.00;97306.21;2203038;80;21004;-82
2022/09/15 05:52:01;;;;;;;5.97;5.47;;;;;;;16.14;100.00;97303.83;2203210;81;20965;-81
2022/09/15 05:55:02;;;;;;;6.75;5.62;;;;;;;16.14;100.00;97310.42;2203227;80;20941;-80
2022/09/15 05:58:02;;;;;;;5.90;5.33;;;;;;;16.17;100.00;97313.88;2203211;81;21008;-80
2022/09/15 06:01:04;;;;;;;6.22;5.67;;;;;;;16.19;100.00;97316.56;2203007;80;20930;-80
2022/09/15 06:04:05;;;;;;;5.53;4.67;;;;;;;16.16;100.00;97317.05;2203206;80;21000;-80
2022/09/15 06:07:05;;;;;;;5.47;5.00;;;;;;;16.13;100.00;97318.87;2203055;80;21464;-79
2022/09/15 06:10:06;;;;;;;4.62;4.17;;;;;;;16.14;100.00;97319.67;2203416;81;21084;-83
2022/09/15 06:13:09;;;;;;;4.90;4.40;;;;;;;16.10;100.00;97323.86;2202775;80;21535;-83
2022/09/15 06:16:10;;;;;;;5.20;4.80;;;;;;;16.16;100.00;97328.92;2203305;81;21305;-81
2022/09/15 06:19:10;;;;;;;5.83;4.60;;;;;;;16.16;100.00;97325.49;2203237;81;21492;-81
2022/09/15 06:22:11;;;;;;;5.20;4.67;;;;;;;16.19;100.00;97324.48;2203171;80;20996;-81
2022/09/15 06:25:12;;;;;;;6.05;5.20;;;;;;;16.27;100.00;97331.14;2203207;81;21040;-81
2022/09/15 06:28:13;;;;;;;7.22;6.15;;;;;;;16.27;100.00;97326.39;2203203;80;20969;-82
2022/09/15 06:31:14;;;;;;;6.58;5.90;;;;;;;16.26;100.00;97329.55;2203016;80;20992;-82
2022/09/15 06:34:15;;;;;;;5.97;5.40;;;;;;;16.35;100.00;97329.38;2203245;80;21008;-82
2022/09/15 06:37:16;;;;;;;7.53;5.55;;;;;;;16.36;100.00;97323.05;2202911;80;21036;-83
2022/09/15 06:40:16;;;;;;;6.35;5.72;;;;;;;16.45;100.00;97328.15;2203073;80;21028;-82
2022/09/15 06:43:17;;;;;;;9.33;6.17;;;;;;;16.60;100.00;97334.63;2202917;80;21507;-81
2022/09/15 06:46:18;;;;;;;6.60;5.90;;;;;;;16.78;100.00;97330.31;2202994;81;20973;-82
2022/09/15 06:49:20;;;;;;;6.95;6.35;;;;;;;16.98;100.00;97329.67;2203055;80;21542;-83
2022/09/15 06:52:21;;;;;;;7.65;6.25;;;;;;;17.17;100.00;97334.82;2202956;81;21024;-82
2022/09/15 06:55:23;;;;;;;9.55;8.63;;;;;;;17.33;100.00;97345.77;2203044;80;21012;-81
2022/09/15 06:58:24;;;;;;;9.33;8.43;;;;;;;17.42;100.00;97354.55;2203000;81;20980;-84
2022/09/15 07:01:25;;;;;;;10.53;9.48;;;;;;;17.48;100.00;97357.51;2203012;81;21012;-84
2022/09/15 07:04:26;;;;;;;13.58;10.30;;;;;;;17.46;100.00;97356.95;2203033;81;20981;-81
2022/09/15 07:07:27;;;;;;;9.55;8.65;;;;;;;17.42;100.00;97354.03;2203015;81;20996;-82
2022/09/15 07:10:28;;;;;;;10.72;9.63;;;;;;;17.43;100.00;97355.62;2203109;81;21476;-83
2022/09/15 07:13:28;;;;;;;10.03;8.28;;;;;;;17.47;100.00;97359.36;2203005;81;21519;-83
2022/09/15 07:16:29;;;;;;;7.72;7.03;;;;;;;17.48;100.00;97361.48;2202912;80;21008;-83
2022/09/15 07:19:30;;;;;;;8.98;8.13;;;;;;;17.46;100.00;97378.11;2202745;80;21583;-82
2022/09/15 07:22:30;;;;;;;7.55;6.95;;;;;;;17.51;100.00;97378.95;2203088;80;21001;-83
2022/09/15 07:25:31;;;;;;;8.05;6.95;;;;;;;17.64;100.00;97381.66;2203142;80;20953;-82
2022/09/15 07:28:32;;;;;;;7.70;7.08;;;;;;;17.80;100.00;97386.54;2202971;81;21352;-81
2022/09/15 07:31:33;;;;;;;8.60;7.80;;;;;;;17.82;100.00;97393.69;2203092;81;21036;-81
2022/09/15 07:34:34;;;;;;;10.08;9.15;;;;;;;17.79;100.00;97396.86;2203099;81;21548;-81
2022/09/15 07:37:35;;;;;;;9.78;8.88;;;;;;;17.76;100.00;97407.45;2203341;80;21044;-81
2022/09/15 07:40:35;;;;;;;8.08;7.35;;;;;;;17.68;100.00;97421.12;2202995;80;20973;-82
2022/09/15 07:43:36;;;;;;;10.55;9.18;;;;;;;17.57;100.00;97425.57;2205077;80;21594;-81
2022/09/15 07:46:37;;;;;;;10.43;8.65;;;;;;;17.56;100.00;97426.63;2214020;80;20980;-81
2022/09/15 07:49:38;;;;;;;9.63;8.78;;;;;;;17.59;100.00;97425.31;2213617;80;20968;-86
2022/09/15 07:52:40;;;;;;;9.15;8.25;;;;;;;17.62;100.00;97432.73;2212941;80;21091;-82
2022/09/15 07:55:41;;;;;;;10.03;9.03;;;;;;;17.68;100.00;97445.48;2213672;80;21012;-82
2022/09/15 07:58:42;;;;;;;10.53;9.50;;;;;;;17.66;100.00;97443.62;2214355;80;21083;-82
2022/09/15 08:01:43;;;;;;;10.03;8.95;;;;;;;17.62;100.00;97442.79;2213603;80;21046;-83
2022/09/15 08:04:44;;;;;;;10.28;9.23;;;;;;;17.63;100.00;97449.67;2213643;80;21530;-82
2022/09/15 08:07:45;;;;;;;9.53;8.63;;;;;;;17.70;100.00;97444.72;2213569;80;21035;-82
2022/09/15 08:10:46;;;;;;;12.93;9.28;;;;;;;17.80;100.00;97446.90;2213674;80;20981;-82
2022/09/15 08:13:48;;;;;;;9.73;8.80;;;;;;;17.86;100.00;97449.86;2213566;80;21159;-82
2022/09/15 08:16:48;;;;;;;9.40;8.43;;;;;;;17.94;100.00;97458.38;2213555;80;21548;-82
2022/09/15 08:19:49;;;;;;;8.98;8.18;;;;;;;17.94;100.00;97471.08;2213646;80;20985;-80
2022/09/15 08:22:50;;;;;;;8.55;7.80;;;;;;;17.91;100.00;97467.60;2213781;80;20973;-81
2022/09/15 08:25:51;;;;;;;10.20;9.05;;;;;;;17.84;100.00;97465.73;2213856;80;21068;-83
2022/09/15 08:28:52;;;;;;;9.55;8.55;;;;;;;17.86;100.00;97467.06;2213706;80;21004;-83
2022/09/15 08:31:53;;;;;;;9.95;9.08;;;;;;;17.95;100.00;97466.05;2213556;80;21051;-81
2022/09/15 08:34:53;;;;;;;11.00;9.80;;;;;;;18.04;100.00;97467.69;2213406;80;21504;-82
2022/09/15 08:37:54;;;;;;;10.38;9.28;;;;;;;18.19;100.00;97477.02;2213494;80;21011;-83
2022/09/15 08:40:55;;;;;;;10.18;9.18;;;;;;;18.28;100.00;97472.81;2213367;80;21080;-81
2022/09/15 08:43:56;;;;;;;9.25;8.45;;;;;;;18.36;100.00;97476.83;2210942;80;21040;-84
2022/09/15 08:46:57;;;;;;;9.40;8.50;;;;;;;18.37;100.00;97479.21;2203270;80;21542;-85
2022/09/15 08:49:57;;;;;;;8.98;8.08;;;;;;;18.34;100.00;97484.25;2202807;81;21078;-84
2022/09/15 08:52:58;;;;;;;9.78;8.90;;;;;;;18.22;100.00;97487.11;2202987;80;21084;-89
2022/09/15 08:55:59;;;;;;;8.90;8.00;;;;;;;18.16;100.00;97488.93;2203002;80;21027;-90
2022/09/15 08:59:00;;;;;;;9.48;8.63;;;;;;;18.15;100.00;97490.52;2202745;80;21079;-85
2022/09/15 09:02:00;;;;;;;8.88;8.08;;;;;;;18.16;100.00;97510.66;2203361;81;20984;-86
2022/09/15 09:05:01;;;;;;;10.28;9.28;;;;;;;18.12;100.00;97501.64;2203115;80;20934;-87
2022/09/15 09:08:02;;;;;;;8.35;7.55;;;;;;;18.08;100.00;97512.45;2203169;80;21543;-84
2022/09/15 09:11:03;;;;;;;9.83;8.83;;;;;;;18.05;100.00;97513.78;2183533;81;20972;-88
2022/09/15 09:14:04;;;;;;;10.25;8.13;;;;;;;18.03;100.00;97513.77;2203105;80;20926;-85
2022/09/15 09:17:06;;;;;;;8.15;7.45;;;;;;;18.05;100.00;97523.58;2203130;81;20950;-89
2022/09/15 09:20:07;;;;;;;8.33;7.12;;;;;;;18.18;100.00;97515.95;2203176;80;21009;-85
2022/09/15 09:23:08;;;;;;;7.12;6.47;;;;;;;18.26;100.00;97512.02;2203107;81;20929;-84
2022/09/15 09:26:08;;;;;;;8.23;6.92;;;;;;;18.30;100.00;97521.07;2203252;80;21487;-90
2022/09/15 09:29:09;;;;;;;7.00;6.33;;;;;;;18.34;100.00;97527.44;2203336;81;20933;-84
2022/09/15 09:32:10;;;;;;;7.10;6.53;;;;;;;18.34;100.00;97528.76;2203202;80;20969;-84
2022/09/15 09:35:11;;;;;;;8.95;6.65;;;;;;;18.38;100.00;97529.06;2203070;81;20973;-86
2022/09/15 09:38:11;;;;;;;6.75;6.22;;;;;;;18.43;100.00;97529.06;2203029;80;20961;-87
2022/09/15 09:41:13;;;;;;;6.78;6.10;;;;;;;18.51;100.00;97527.25;2203110;80;21064;-89
2022/09/15 09:44:14;;;;;;;6.50;5.95;;;;;;;18.53;100.00;97534.41;2203119;80;21567;-85
2022/09/15 09:47:15;;;;;;;6.35;5.75;;;;;;;18.54;100.00;97528.58;2202760;81;21044;-84
2022/09/15 09:53:30;;;;;;;6.08;5.58;;;;;;;18.73;100.00;97528.41;2132651;83;21091;-88
2022/09/15 09:56:40;;;;;;;5.08;4.78;;;;;;;18.81;100.00;97523.13;2132510;83;21052;-84
2022/09/15 10:05:50;;;;;;;4.72;4.33;;;;;;;19.24;100.00;97523.23;2025464;88;21116;-82
2022/09/15 10:08:51;;;;;;;5.30;4.75;;;;;;;19.48;100.00;97524.31;2027788;88;21096;-83
2022/09/15 10:12:00;;;;;;;5.55;4.97;;;;;;;19.62;100.00;97525.92;2027010;88;21064;-85
2022/09/15 10:15:01;;;;;;;4.67;4.35;;;;;;;19.65;100.00;97520.07;2027961;88;21063;-84
2022/09/15 10:18:04;;;;;;;4.97;4.50;;;;;;;19.79;100.00;97522.47;2028024;88;21134;-85
2022/09/15 10:21:04;;;;;;;4.95;4.55;;;;;;;19.92;100.00;97523.77;2005332;89;21033;-85
2022/09/15 10:24:05;;;;;;;3.77;3.58;;;;;;;19.98;100.00;97518.72;2005504;89;21053;-86
2022/09/15 10:27:09;;;;;;;4.03;3.83;;;;;;;20.03;100.00;97518.72;2005821;89;20993;-87
2022/09/15 10:30:08;;;;;;;4.55;4.25;;;;;;;20.16;100.00;97514.16;2005223;89;21129;-86
2022/09/15 10:33:09;;;;;;;4.40;4.10;;;;;;;20.32;100.00;97509.59;2005530;89;21050;-87
2022/09/15 10:36:10;;;;;;;5.15;4.75;;;;;;;20.54;100.00;97514.58;2005449;89;21102;-85
2022/09/15 10:39:11;;;;;;;4.22;3.98;;;;;;;20.71;100.00;97510.26;2005555;89;21156;-84
2022/09/15 10:42:11;;;;;;;4.58;4.28;;;;;;;20.66;100.00;97511.06;2005849;89;21070;-86
2022/09/15 10:45:12;;;;;;;4.40;4.00;;;;;;;20.56;100.00;97517.76;1991167;88;21128;-87
2022/09/15 10:48:13;;;;;;;4.40;4.10;;;;;;;20.43;100.00;97513.84;1967719;90;21045;-86
2022/09/15 10:51:14;;;;;;;4.28;3.98;;;;;;;20.18;100.00;97520.52;1905406;93;21119;-86
2022/09/15 10:54:15;;;;;;;4.40;4.10;;;;;;;19.91;100.00;97521.38;1906963;93;21128;-84
2022/09/15 10:57:16;;;;;;;4.30;4.00;;;;;;;19.51;100.00;97513.16;1906690;93;21084;-84
2022/09/15 11:00:17;;;;;;;4.97;4.42;;;;;;;19.40;100.00;97519.53;1956068;90;21176;-84
2022/09/15 11:03:18;;;;;;;5.12;4.62;;;;;;;19.48;100.00;97518.22;2018942;88;21589;-83
2022/09/15 11:06:18;;;;;;;5.03;4.65;;;;;;;19.74;100.00;97512.37;2068184;85;21110;-84
2022/09/15 11:09:19;;;;;;;5.60;5.10;;;;;;;19.92;100.00;97509.69;2121555;84;20976;-84
2022/09/15 11:12:20;;;;;;;6.67;5.20;;;;;;;20.15;100.00;97515.22;2109646;84;21056;-82
2022/09/15 11:15:21;;;;;;;6.12;5.53;;;;;;;20.42;100.00;97511.42;2121527;84;21037;-82
2022/09/15 11:18:22;;;;;;;5.70;5.20;;;;;;;20.69;100.00;97511.87;2109535;84;21028;-83
2022/09/15 11:21:23;;;;;;;4.67;4.28;;;;;;;20.81;100.00;97506.22;2121356;84;21043;-82
2022/09/15 11:24:24;;;;;;;5.08;4.67;;;;;;;20.86;100.00;97504.08;2109587;84;20973;-81
2022/09/15 11:27:24;;;;;;;4.62;4.03;;;;;;;20.82;100.00;97509.66;2121520;84;21051;-82
2022/09/15 11:30:25;;;;;;;5.72;4.25;;;;;;;20.86;100.00;97498.22;2109899;84;21053;-84
2022/09/15 11:33:26;;;;;;;4.58;4.12;;;;;;;20.80;100.00;97501.97;2121581;84;21000;-82
2022/09/15 11:36:27;;;;;;;4.80;4.50;;;;;;;20.81;100.00;97502.22;2109665;84;21044;-82
2022/09/15 11:39:28;;;;;;;5.25;4.75;;;;;;;20.87;100.00;97496.35;2121399;84;20988;-81
2022/09/15 11:42:29;;;;;;;4.62;3.92;;;;;;;21.04;100.00;97490.12;2109539;84;21031;-81
2022/09/15 11:45:32;;;;;;;4.45;4.05;;;;;;;21.00;100.00;97494.39;2116554;82;21112;-82
2022/09/15 11:48:33;;;;;;;4.62;4.33;;;;;;;20.85;100.00;97496.62;2158138;82;20957;-83
2022/09/15 11:51:34;;;;;;;4.40;4.00;;;;;;;20.82;100.00;97497.70;2145487;83;21127;-84
2022/09/15 11:54:35;;;;;;;3.80;3.50;;;;;;;20.78;100.00;97499.33;2157808;82;21044;-83
2022/09/15 11:57:36;;;;;;;4.72;4.35;;;;;;;20.55;100.00;97501.55;2145672;83;21080;-83
2022/09/15 12:00:37;;;;;;;5.25;4.75;;;;;;;20.48;100.00;97498.92;2158064;82;21028;-82
2022/09/15 12:03:38;;;;;;;6.08;4.92;;;;;;;20.48;100.00;97498.92;2145786;83;20977;-82
2022/09/15 12:06:38;;;;;;;4.25;3.77;;;;;;;20.43;100.00;97505.86;2158258;82;21483;-83
2022/09/15 12:09:39;;;;;;;4.67;3.35;;;;;;;20.45;100.00;97498.40;2145877;83;20972;-82
2022/09/15 12:12:40;;;;;;;4.85;3.50;;;;;;;20.39;100.00;97505.30;2158080;82;21642;-82
2022/09/15 12:15:41;;;;;;;3.10;2.90;;;;;;;20.35;100.00;97497.09;2145801;83;21048;-82
2022/09/15 12:18:41;;;;;;;5.03;3.58;;;;;;;20.28;100.00;97500.56;2158307;82;20946;-82
2022/09/15 12:21:42;;;;;;;8.63;4.17;;;;;;;20.22;100.00;97492.36;2145846;83;21040;-82
2022/09/15 12:24:44;;;;;;;4.20;3.80;;;;;;;20.22;100.00;97491.03;2158056;82;21442;-82
2022/09/15 12:27:45;;;;;;;4.72;3.85;;;;;;;20.26;100.00;97487.29;2145827;83;21099;-81
2022/09/15 12:30:46;;;;;;;5.28;3.33;;;;;;;20.27;100.00;97488.34;2158035;82;21033;-82
2022/09/15 12:33:47;;;;;;;4.42;3.95;;;;;;;20.30;100.00;97490.48;2104260;84;21563;-82
2022/09/15 12:36:52;;;;;;;4.15;3.58;;;;;;;20.38;100.00;97491.75;2120010;83;20982;-83
2022/09/15 12:39:53;;;;;;;8.18;4.22;;;;;;;20.43;100.00;97497.88;2183225;81;21094;-82
2022/09/15 12:42:56;;;;;;;5.60;3.47;;;;;;;20.40;100.00;97494.42;2183291;81;20958;-82
2022/09/15 12:45:56;;;;;;;12.37;4.17;;;;;;;20.26;100.00;97492.06;2183312;81;21132;-83
2022/09/15 12:48:58;;;;;;;7.00;3.75;;;;;;;20.31;100.00;97498.70;2151741;81;21081;-81
2022/09/15 12:51:58;;;;;;;4.37;3.95;;;;;;;20.22;100.00;97490.23;2145756;83;21008;-86
2022/09/15 12:54:59;;;;;;;5.20;4.58;;;;;;;20.12;100.00;97485.22;2121375;83;20997;-83
2022/09/15 12:58:00;;;;;;;4.05;3.40;;;;;;;20.09;100.00;97480.95;2145836;83;21150;-83
2022/09/15 13:01:01;;;;;;;6.55;4.40;;;;;;;20.12;100.00;97489.73;2145821;83;21099;-84
2022/09/15 13:04:01;;;;;;;4.60;3.22;;;;;;;20.08;100.00;97498.77;2145904;83;21433;-82
2022/09/15 13:07:02;;;;;;;6.47;4.30;;;;;;;19.99;100.00;97490.29;2145999;83;21009;-82
2022/09/15 13:10:03;;;;;;;7.05;3.47;;;;;;;19.92;100.00;97495.08;2145742;83;21053;-81
2022/09/15 13:13:04;;;;;;;4.12;3.67;;;;;;;19.84;100.00;97489.78;2145330;83;20970;-81
2022/09/15 13:16:04;;;;;;;6.67;3.20;;;;;;;19.71;100.00;97487.69;2145333;83;21076;-82
2022/09/15 13:19:05;;;;;;;4.12;3.65;;;;;;;19.55;100.00;97483.67;2145642;83;20934;-82
2022/09/15 13:22:06;;;;;;;4.85;2.98;;;;;;;19.50;100.00;97476.27;2145495;83;21080;-82
2022/09/15 13:25:07;;;;;;;5.70;3.60;;;;;;;19.35;100.00;97478.38;2145452;83;21000;-82
2022/09/15 13:28:08;;;;;;;6.92;3.42;;;;;;;19.35;100.00;97478.38;2145712;83;21001;-82
2022/09/15 13:31:09;;;;;;;7.37;4.20;;;;;;;19.30;100.00;97481.05;2145595;83;21100;-82
2022/09/15 13:34:09;;;;;;;4.10;3.52;;;;;;;19.22;100.00;97480.25;2173747;82;20937;-82
2022/09/15 13:37:10;;;;;;;5.72;3.92;;;;;;;19.21;100.00;97476.80;2181032;81;21003;-83
2022/09/15 13:40:11;;;;;;;6.62;4.17;;;;;;;19.18;100.00;97475.19;2181202;82;21079;-82
2022/09/15 13:43:12;;;;;;;6.35;3.70;;;;;;;19.18;100.00;97478.64;2181224;82;21047;-82
2022/09/15 13:46:13;;;;;;;4.53;3.72;;;;;;;19.18;100.00;97472.53;2175413;81;21090;-82
2022/09/15 13:49:14;;;;;;;5.58;3.45;;;;;;;19.14;100.00;97474.14;2126648;83;21461;-82
2022/09/15 13:52:15;;;;;;;4.25;3.00;;;;;;;19.08;100.00;97479.16;2171411;81;20982;-82
2022/09/15 13:55:25;;;;;;;4.20;3.02;;;;;;;19.01;100.00;97474.91;2126461;83;20966;-82
2022/09/15 13:58:18;;;;;;;8.13;3.60;;;;;;;18.98;100.00;97477.30;2171670;81;21514;-83
2022/09/15 14:01:20;;;;;;;5.05;3.08;;;;;;;18.91;100.00;97475.42;2160549;82;21073;-83
2022/09/15 14:04:21;;;;;;;5.83;2.85;;;;;;;18.93;100.00;97478.10;2126485;84;21488;-83
2022/09/15 14:07:25;;;;;;;6.15;3.05;;;;;;;18.88;100.00;97475.95;2126314;84;21583;-83
2022/09/15 14:10:27;;;;;;;4.78;3.77;;;;;;;18.82;100.00;97476.47;2170254;81;20990;-83
2022/09/15 14:13:28;;;;;;;6.65;3.22;;;;;;;18.72;100.00;97481.22;2126578;83;21084;-83